sensor_id;sensor_type;location;lat;lon;timestamp;P1;durP1;ratioP1;P2;durP2;ratioP2
13048;SDS011;6591;51.446;5.404;2024-01-15T00:00:39;26.37;;;15.17;;
13048;SDS011;6591;51.446;5.404;2024-01-15T00:03:06;25.40;;;14.87;;
13048;SDS011;6591;51.446;5.404;2024-01-15T00:05:33;23.07;;;14.30;;
13048;SDS011;6591;51.446;5.404;2024-01-15T00:08:00;27.47;;;15.30;;
13048;SDS011;6591;51.446;5.404;2024-01-15T00:10:28;22.63;;;14.10;;
13048;SDS011;6591;51.446;5.404;2024-01-15T00:12:54;23.83;;;14.47;;
13048;SDS011;6591;51.446;5.404;2024-01-15T00:15:22;24.07;;;13.60;;
13048;SDS011;6591;51.446;5.404;2024-01-15T00:17:49;23.87;;;13.37;;
13048;SDS011;6591;51.446;5.404;2024-01-15T00:20:16;21.43;;;13.20;;
13048;SDS011;6591;51.446;5.404;2024-01-15T00:22:42;24.30;;;13.83;;
13048;SDS011;6591;51.446;5.404;2024-01-15T00:25:10;21.27;;;11.67;;
13048;SDS011;6591;51.446;5.404;2024-01-15T00:27:37;22.23;;;11.63;;
13048;SDS011;6591;51.446;5.404;2024-01-15T00:30:04;18.30;;;10.80;;
13048;SDS011;6591;51.446;5.404;2024-01-15T00:32:32;18.97;;;10.67;;
13048;SDS011;6591;51.446;5.404;2024-01-15T00:34:59;14.33;;;8.40;;
13048;SDS011;6591;51.446;5.404;2024-01-15T00:37:26;13.63;;;8.17;;
13048;SDS011;6591;51.446;5.404;2024-01-15T00:39:53;11.70;;;6.87;;
13048;SDS011;6591;51.446;5.404;2024-01-15T00:42:20;9.20;;;5.70;;
13048;SDS011;6591;51.446;5.404;2024-01-15T00:44:47;7.63;;;4.87;;
13048;SDS011;6591;51.446;5.404;2024-01-15T00:47:14;7.00;;;4.50;;
13048;SDS011;6591;51.446;5.404;2024-01-15T00:49:41;7.60;;;3.50;;
13048;SDS011;6591;51.446;5.404;2024-01-15T00:52:08;6.17;;;3.27;;
13048;SDS011;6591;51.446;5.404;2024-01-15T00:54:35;7.03;;;3.03;;
13048;SDS011;6591;51.446;5.404;2024-01-15T00:57:53;4.17;;;2.60;;
13048;SDS011;6591;51.446;5.404;2024-01-15T01:00:20;4.67;;;2.10;;
13048;SDS011;6591;51.446;5.404;2024-01-15T01:02:47;3.83;;;1.93;;
13048;SDS011;6591;51.446;5.404;2024-01-15T01:05:14;4.20;;;1.70;;
13048;SDS011;6591;51.446;5.404;2024-01-15T01:07:41;3.43;;;1.90;;
13048;SDS011;6591;51.446;5.404;2024-01-15T01:10:08;2.90;;;1.30;;
13048;SDS011;6591;51.446;5.404;2024-01-15T01:12:35;2.73;;;1.87;;
13048;SDS011;6591;51.446;5.404;2024-01-15T01:15:03;2.83;;;1.40;;
13048;SDS011;6591;51.446;5.404;2024-01-15T01:17:30;1.93;;;1.20;;
13048;SDS011;6591;51.446;5.404;2024-01-15T01:19:58;2.63;;;1.20;;
13048;SDS011;6591;51.446;5.404;2024-01-15T01:22:25;2.40;;;1.23;;
13048;SDS011;6591;51.446;5.404;2024-01-15T01:24:52;1.67;;;1.40;;
13048;SDS011;6591;51.446;5.404;2024-01-15T01:27:19;2.80;;;1.60;;
13048;SDS011;6591;51.446;5.404;2024-01-15T01:29:46;3.37;;;1.40;;
13048;SDS011;6591;51.446;5.404;2024-01-15T01:32:13;1.73;;;1.20;;
13048;SDS011;6591;51.446;5.404;2024-01-15T01:34:40;2.90;;;1.40;;
13048;SDS011;6591;51.446;5.404;2024-01-15T01:37:11;2.07;;;1.20;;
13048;SDS011;6591;51.446;5.404;2024-01-15T01:39:40;1.30;;;1.10;;
13048;SDS011;6591;51.446;5.404;2024-01-15T01:42:08;2.67;;;1.40;;
13048;SDS011;6591;51.446;5.404;2024-01-15T01:44:36;5.13;;;1.70;;
13048;SDS011;6591;51.446;5.404;2024-01-15T01:47:02;3.37;;;1.60;;
13048;SDS011;6591;51.446;5.404;2024-01-15T01:49:31;3.30;;;1.60;;
13048;SDS011;6591;51.446;5.404;2024-01-15T01:52:02;2.83;;;1.80;;
13048;SDS011;6591;51.446;5.404;2024-01-15T01:54:33;5.17;;;2.17;;
13048;SDS011;6591;51.446;5.404;2024-01-15T01:57:03;4.43;;;1.40;;
13048;SDS011;6591;51.446;5.404;2024-01-15T01:59:32;3.20;;;1.63;;
13048;SDS011;6591;51.446;5.404;2024-01-15T02:02:01;3.63;;;1.70;;
13048;SDS011;6591;51.446;5.404;2024-01-15T02:04:31;3.33;;;1.50;;
13048;SDS011;6591;51.446;5.404;2024-01-15T02:06:59;2.13;;;1.50;;
13048;SDS011;6591;51.446;5.404;2024-01-15T02:09:27;3.07;;;1.60;;
13048;SDS011;6591;51.446;5.404;2024-01-15T02:11:54;2.47;;;1.63;;
13048;SDS011;6591;51.446;5.404;2024-01-15T02:14:21;2.97;;;1.20;;
13048;SDS011;6591;51.446;5.404;2024-01-15T02:16:49;2.97;;;1.60;;
13048;SDS011;6591;51.446;5.404;2024-01-15T02:19:16;3.43;;;1.60;;
13048;SDS011;6591;51.446;5.404;2024-01-15T02:21:45;3.97;;;1.43;;
13048;SDS011;6591;51.446;5.404;2024-01-15T02:24:12;2.47;;;1.53;;
13048;SDS011;6591;51.446;5.404;2024-01-15T02:26:39;2.37;;;1.40;;
13048;SDS011;6591;51.446;5.404;2024-01-15T02:29:08;3.73;;;1.40;;
13048;SDS011;6591;51.446;5.404;2024-01-15T02:31:36;4.03;;;1.23;;
13048;SDS011;6591;51.446;5.404;2024-01-15T02:34:04;2.50;;;1.30;;
13048;SDS011;6591;51.446;5.404;2024-01-15T02:36:31;4.57;;;1.20;;
13048;SDS011;6591;51.446;5.404;2024-01-15T02:38:59;2.47;;;1.17;;
13048;SDS011;6591;51.446;5.404;2024-01-15T02:41:26;3.47;;;1.40;;
13048;SDS011;6591;51.446;5.404;2024-01-15T02:43:53;2.57;;;1.30;;
13048;SDS011;6591;51.446;5.404;2024-01-15T02:46:20;3.47;;;1.40;;
13048;SDS011;6591;51.446;5.404;2024-01-15T02:48:47;2.67;;;1.10;;
13048;SDS011;6591;51.446;5.404;2024-01-15T02:51:14;1.53;;;1.00;;
13048;SDS011;6591;51.446;5.404;2024-01-15T02:53:41;2.83;;;1.30;;
13048;SDS011;6591;51.446;5.404;2024-01-15T02:56:08;1.93;;;1.20;;
13048;SDS011;6591;51.446;5.404;2024-01-15T02:58:35;2.33;;;1.10;;
13048;SDS011;6591;51.446;5.404;2024-01-15T03:01:02;5.40;;;1.20;;
13048;SDS011;6591;51.446;5.404;2024-01-15T03:03:30;5.43;;;1.10;;
13048;SDS011;6591;51.446;5.404;2024-01-15T03:05:59;2.67;;;1.37;;
13048;SDS011;6591;51.446;5.404;2024-01-15T03:08:29;1.57;;;1.00;;
13048;SDS011;6591;51.446;5.404;2024-01-15T03:10:56;3.87;;;1.50;;
13048;SDS011;6591;51.446;5.404;2024-01-15T03:13:24;3.03;;;1.47;;
13048;SDS011;6591;51.446;5.404;2024-01-15T03:15:50;4.40;;;1.47;;
13048;SDS011;6591;51.446;5.404;2024-01-15T03:18:18;4.13;;;1.60;;
13048;SDS011;6591;51.446;5.404;2024-01-15T03:20:45;4.57;;;1.57;;
13048;SDS011;6591;51.446;5.404;2024-01-15T03:23:12;3.20;;;1.40;;
13048;SDS011;6591;51.446;5.404;2024-01-15T03:25:39;3.67;;;1.50;;
13048;SDS011;6591;51.446;5.404;2024-01-15T03:28:06;3.77;;;1.50;;
13048;SDS011;6591;51.446;5.404;2024-01-15T03:30:33;2.23;;;1.40;;
13048;SDS011;6591;51.446;5.404;2024-01-15T03:33:01;5.53;;;1.77;;
13048;SDS011;6591;51.446;5.404;2024-01-15T03:35:28;6.90;;;1.73;;
13048;SDS011;6591;51.446;5.404;2024-01-15T03:37:55;4.03;;;1.70;;
13048;SDS011;6591;51.446;5.404;2024-01-15T03:40:22;2.67;;;1.40;;
13048;SDS011;6591;51.446;5.404;2024-01-15T03:42:50;3.80;;;1.60;;
13048;SDS011;6591;51.446;5.404;2024-01-15T03:45:18;2.47;;;1.80;;
13048;SDS011;6591;51.446;5.404;2024-01-15T03:47:45;6.57;;;1.67;;
13048;SDS011;6591;51.446;5.404;2024-01-15T03:50:13;6.17;;;1.47;;
13048;SDS011;6591;51.446;5.404;2024-01-15T03:52:40;2.90;;;1.60;;
13048;SDS011;6591;51.446;5.404;2024-01-15T03:55:07;3.93;;;1.53;;
13048;SDS011;6591;51.446;5.404;2024-01-15T03:57:35;5.63;;;1.50;;
13048;SDS011;6591;51.446;5.404;2024-01-15T04:00:02;4.20;;;1.60;;
13048;SDS011;6591;51.446;5.404;2024-01-15T04:02:30;3.67;;;1.40;;
13048;SDS011;6591;51.446;5.404;2024-01-15T04:04:57;4.03;;;1.60;;
13048;SDS011;6591;51.446;5.404;2024-01-15T04:07:24;4.47;;;1.90;;
13048;SDS011;6591;51.446;5.404;2024-01-15T04:09:51;3.70;;;1.27;;
13048;SDS011;6591;51.446;5.404;2024-01-15T04:12:18;3.37;;;1.30;;
13048;SDS011;6591;51.446;5.404;2024-01-15T04:14:45;6.57;;;1.50;;
13048;SDS011;6591;51.446;5.404;2024-01-15T04:17:13;6.03;;;1.60;;
13048;SDS011;6591;51.446;5.404;2024-01-15T04:19:40;4.23;;;1.40;;
13048;SDS011;6591;51.446;5.404;2024-01-15T04:22:10;3.77;;;1.40;;
13048;SDS011;6591;51.446;5.404;2024-01-15T04:24:38;4.07;;;1.20;;
13048;SDS011;6591;51.446;5.404;2024-01-15T04:27:05;2.53;;;1.13;;
13048;SDS011;6591;51.446;5.404;2024-01-15T04:29:33;3.10;;;1.10;;
13048;SDS011;6591;51.446;5.404;2024-01-15T04:32:05;4.53;;;1.40;;
13048;SDS011;6591;51.446;5.404;2024-01-15T04:34:32;4.07;;;1.20;;
13048;SDS011;6591;51.446;5.404;2024-01-15T04:36:59;2.67;;;1.03;;
13048;SDS011;6591;51.446;5.404;2024-01-15T04:39:27;3.20;;;0.97;;
13048;SDS011;6591;51.446;5.404;2024-01-15T04:41:54;3.67;;;1.53;;
13048;SDS011;6591;51.446;5.404;2024-01-15T04:44:22;2.50;;;1.20;;
13048;SDS011;6591;51.446;5.404;2024-01-15T04:46:49;3.83;;;1.00;;
13048;SDS011;6591;51.446;5.404;2024-01-15T04:49:16;4.23;;;1.10;;
13048;SDS011;6591;51.446;5.404;2024-01-15T04:51:43;2.63;;;0.87;;
13048;SDS011;6591;51.446;5.404;2024-01-15T04:54:10;1.80;;;0.90;;
13048;SDS011;6591;51.446;5.404;2024-01-15T04:56:38;1.17;;;0.80;;
13048;SDS011;6591;51.446;5.404;2024-01-15T04:59:05;2.33;;;0.90;;
13048;SDS011;6591;51.446;5.404;2024-01-15T05:01:32;1.40;;;0.90;;
13048;SDS011;6591;51.446;5.404;2024-01-15T05:03:59;3.57;;;1.20;;
13048;SDS011;6591;51.446;5.404;2024-01-15T05:06:26;1.60;;;0.87;;
13048;SDS011;6591;51.446;5.404;2024-01-15T05:08:54;3.37;;;1.60;;
13048;SDS011;6591;51.446;5.404;2024-01-15T05:11:21;1.67;;;0.90;;
13048;SDS011;6591;51.446;5.404;2024-01-15T05:13:48;2.10;;;1.10;;
13048;SDS011;6591;51.446;5.404;2024-01-15T05:16:15;1.83;;;1.00;;
13048;SDS011;6591;51.446;5.404;2024-01-15T05:18:43;2.23;;;1.10;;
13048;SDS011;6591;51.446;5.404;2024-01-15T05:21:10;2.67;;;1.17;;
13048;SDS011;6591;51.446;5.404;2024-01-15T05:23:37;3.10;;;1.00;;
13048;SDS011;6591;51.446;5.404;2024-01-15T05:26:04;3.13;;;1.20;;
13048;SDS011;6591;51.446;5.404;2024-01-15T05:28:31;2.23;;;1.30;;
13048;SDS011;6591;51.446;5.404;2024-01-15T05:30:58;2.77;;;1.07;;
13048;SDS011;6591;51.446;5.404;2024-01-15T05:33:26;5.07;;;1.27;;
13048;SDS011;6591;51.446;5.404;2024-01-15T05:35:54;4.30;;;1.60;;
13048;SDS011;6591;51.446;5.404;2024-01-15T05:38:21;2.47;;;1.13;;
13048;SDS011;6591;51.446;5.404;2024-01-15T05:40:48;3.37;;;1.33;;
13048;SDS011;6591;51.446;5.404;2024-01-15T05:43:15;2.50;;;1.23;;
13048;SDS011;6591;51.446;5.404;2024-01-15T05:45:43;3.20;;;1.30;;
13048;SDS011;6591;51.446;5.404;2024-01-15T05:48:11;2.03;;;1.00;;
13048;SDS011;6591;51.446;5.404;2024-01-15T05:50:39;2.57;;;0.90;;
13048;SDS011;6591;51.446;5.404;2024-01-15T05:53:06;3.93;;;1.20;;
13048;SDS011;6591;51.446;5.404;2024-01-15T05:55:33;4.37;;;1.23;;
13048;SDS011;6591;51.446;5.404;2024-01-15T05:58:02;6.67;;;1.57;;
13048;SDS011;6591;51.446;5.404;2024-01-15T06:00:30;4.80;;;1.57;;
13048;SDS011;6591;51.446;5.404;2024-01-15T06:02:59;2.93;;;1.70;;
13048;SDS011;6591;51.446;5.404;2024-01-15T06:05:26;3.43;;;1.80;;
13048;SDS011;6591;51.446;5.404;2024-01-15T06:07:54;5.27;;;1.50;;
13048;SDS011;6591;51.446;5.404;2024-01-15T06:10:21;5.43;;;1.60;;
13048;SDS011;6591;51.446;5.404;2024-01-15T06:12:48;3.30;;;1.70;;
13048;SDS011;6591;51.446;5.404;2024-01-15T06:15:15;6.93;;;2.00;;
13048;SDS011;6591;51.446;5.404;2024-01-15T06:17:42;3.17;;;1.63;;
13048;SDS011;6591;51.446;5.404;2024-01-15T06:20:10;5.57;;;2.03;;
13048;SDS011;6591;51.446;5.404;2024-01-15T06:22:38;5.87;;;1.87;;
13048;SDS011;6591;51.446;5.404;2024-01-15T06:25:08;4.33;;;1.60;;
13048;SDS011;6591;51.446;5.404;2024-01-15T06:27:36;3.87;;;1.53;;
13048;SDS011;6591;51.446;5.404;2024-01-15T06:30:03;3.10;;;1.53;;
13048;SDS011;6591;51.446;5.404;2024-01-15T06:32:31;1.90;;;1.30;;
13048;SDS011;6591;51.446;5.404;2024-01-15T06:34:58;2.90;;;1.43;;
13048;SDS011;6591;51.446;5.404;2024-01-15T06:37:25;2.87;;;1.30;;
13048;SDS011;6591;51.446;5.404;2024-01-15T06:39:52;3.57;;;1.50;;
13048;SDS011;6591;51.446;5.404;2024-01-15T06:42:19;5.93;;;1.60;;
13048;SDS011;6591;51.446;5.404;2024-01-15T06:44:48;2.43;;;1.40;;
13048;SDS011;6591;51.446;5.404;2024-01-15T06:47:15;3.13;;;1.37;;
13048;SDS011;6591;51.446;5.404;2024-01-15T06:49:44;2.07;;;1.37;;
13048;SDS011;6591;51.446;5.404;2024-01-15T06:52:11;2.17;;;1.30;;
13048;SDS011;6591;51.446;5.404;2024-01-15T06:54:39;2.87;;;1.73;;
13048;SDS011;6591;51.446;5.404;2024-01-15T06:57:06;2.23;;;1.60;;
13048;SDS011;6591;51.446;5.404;2024-01-15T06:59:33;2.37;;;1.50;;
13048;SDS011;6591;51.446;5.404;2024-01-15T07:02:04;1.90;;;1.63;;
13048;SDS011;6591;51.446;5.404;2024-01-15T07:04:31;2.83;;;1.70;;
13048;SDS011;6591;51.446;5.404;2024-01-15T07:06:59;2.50;;;1.90;;
13048;SDS011;6591;51.446;5.404;2024-01-15T07:09:26;3.93;;;2.03;;
13048;SDS011;6591;51.446;5.404;2024-01-15T07:11:53;2.40;;;1.90;;
13048;SDS011;6591;51.446;5.404;2024-01-15T07:14:20;2.83;;;1.73;;
13048;SDS011;6591;51.446;5.404;2024-01-15T07:16:47;3.70;;;2.10;;
13048;SDS011;6591;51.446;5.404;2024-01-15T07:19:14;3.20;;;1.90;;
13048;SDS011;6591;51.446;5.404;2024-01-15T07:21:42;1.60;;;1.50;;
13048;SDS011;6591;51.446;5.404;2024-01-15T07:24:09;2.83;;;1.80;;
13048;SDS011;6591;51.446;5.404;2024-01-15T07:26:37;2.77;;;1.70;;
13048;SDS011;6591;51.446;5.404;2024-01-15T07:29:04;1.67;;;1.57;;
13048;SDS011;6591;51.446;5.404;2024-01-15T07:31:31;2.37;;;1.50;;
13048;SDS011;6591;51.446;5.404;2024-01-15T07:33:59;1.70;;;1.60;;
13048;SDS011;6591;51.446;5.404;2024-01-15T07:36:26;1.83;;;1.60;;
13048;SDS011;6591;51.446;5.404;2024-01-15T07:38:54;1.83;;;1.50;;
13048;SDS011;6591;51.446;5.404;2024-01-15T07:41:21;1.60;;;1.50;;
13048;SDS011;6591;51.446;5.404;2024-01-15T07:43:48;2.10;;;1.90;;
13048;SDS011;6591;51.446;5.404;2024-01-15T07:46:15;3.33;;;2.20;;
13048;SDS011;6591;51.446;5.404;2024-01-15T07:48:42;3.77;;;2.80;;
13048;SDS011;6591;51.446;5.404;2024-01-15T07:51:10;5.00;;;3.27;;
13048;SDS011;6591;51.446;5.404;2024-01-15T07:53:37;4.17;;;3.77;;
13048;SDS011;6591;51.446;5.404;2024-01-15T07:56:04;4.43;;;3.90;;
13048;SDS011;6591;51.446;5.404;2024-01-15T07:58:31;4.63;;;3.70;;
13048;SDS011;6591;51.446;5.404;2024-01-15T08:00:58;4.30;;;3.90;;
13048;SDS011;6591;51.446;5.404;2024-01-15T08:03:26;4.30;;;3.90;;
13048;SDS011;6591;51.446;5.404;2024-01-15T08:05:53;4.10;;;3.40;;
13048;SDS011;6591;51.446;5.404;2024-01-15T08:08:22;5.07;;;3.90;;
13048;SDS011;6591;51.446;5.404;2024-01-15T08:10:49;5.63;;;3.80;;
13048;SDS011;6591;51.446;5.404;2024-01-15T08:13:16;4.37;;;3.30;;
13048;SDS011;6591;51.446;5.404;2024-01-15T08:15:44;4.10;;;2.73;;
13048;SDS011;6591;51.446;5.404;2024-01-15T08:18:11;5.27;;;3.10;;
13048;SDS011;6591;51.446;5.404;2024-01-15T08:20:39;3.40;;;3.10;;
13048;SDS011;6591;51.446;5.404;2024-01-15T08:23:06;4.33;;;3.00;;
13048;SDS011;6591;51.446;5.404;2024-01-15T08:25:34;3.70;;;2.80;;
13048;SDS011;6591;51.446;5.404;2024-01-15T08:28:01;4.20;;;3.17;;
13048;SDS011;6591;51.446;5.404;2024-01-15T08:30:28;3.30;;;3.00;;
13048;SDS011;6591;51.446;5.404;2024-01-15T08:32:56;2.83;;;2.40;;
13048;SDS011;6591;51.446;5.404;2024-01-15T08:35:30;3.50;;;2.50;;
13048;SDS011;6591;51.446;5.404;2024-01-15T08:37:57;2.63;;;2.07;;
13048;SDS011;6591;51.446;5.404;2024-01-15T08:40:24;2.60;;;1.63;;
13048;SDS011;6591;51.446;5.404;2024-01-15T08:42:52;1.70;;;1.60;;
13048;SDS011;6591;51.446;5.404;2024-01-15T08:45:19;2.50;;;1.53;;
13048;SDS011;6591;51.446;5.404;2024-01-15T08:47:48;3.13;;;1.30;;
13048;SDS011;6591;51.446;5.404;2024-01-15T08:50:15;2.17;;;1.40;;
13048;SDS011;6591;51.446;5.404;2024-01-15T08:52:42;3.80;;;1.10;;
13048;SDS011;6591;51.446;5.404;2024-01-15T08:55:09;3.43;;;1.07;;
13048;SDS011;6591;51.446;5.404;2024-01-15T08:57:36;1.53;;;0.93;;
13048;SDS011;6591;51.446;5.404;2024-01-15T09:00:04;3.40;;;0.93;;
13048;SDS011;6591;51.446;5.404;2024-01-15T09:02:35;1.87;;;0.90;;
13048;SDS011;6591;51.446;5.404;2024-01-15T09:05:03;3.77;;;1.10;;
13048;SDS011;6591;51.446;5.404;2024-01-15T09:07:31;2.33;;;1.20;;
13048;SDS011;6591;51.446;5.404;2024-01-15T09:09:58;5.30;;;1.07;;
13048;SDS011;6591;51.446;5.404;2024-01-15T09:12:26;3.20;;;1.03;;
13048;SDS011;6591;51.446;5.404;2024-01-15T09:14:54;6.70;;;1.40;;
13048;SDS011;6591;51.446;5.404;2024-01-15T09:17:22;4.27;;;1.10;;
13048;SDS011;6591;51.446;5.404;2024-01-15T09:19:50;2.03;;;0.90;;
13048;SDS011;6591;51.446;5.404;2024-01-15T09:22:17;3.30;;;1.17;;
13048;SDS011;6591;51.446;5.404;2024-01-15T09:24:45;2.67;;;1.20;;
13048;SDS011;6591;51.446;5.404;2024-01-15T09:27:13;0.97;;;0.87;;
13048;SDS011;6591;51.446;5.404;2024-01-15T09:29:41;2.67;;;1.10;;
13048;SDS011;6591;51.446;5.404;2024-01-15T09:32:12;2.87;;;1.00;;
13048;SDS011;6591;51.446;5.404;2024-01-15T09:34:39;3.20;;;1.37;;
13048;SDS011;6591;51.446;5.404;2024-01-15T09:37:09;3.07;;;1.37;;
13048;SDS011;6591;51.446;5.404;2024-01-15T09:39:45;3.80;;;1.20;;
13048;SDS011;6591;51.446;5.404;2024-01-15T09:42:12;2.27;;;1.10;;
13048;SDS011;6591;51.446;5.404;2024-01-15T09:44:40;3.40;;;1.40;;
13048;SDS011;6591;51.446;5.404;2024-01-15T09:47:08;4.63;;;1.23;;
13048;SDS011;6591;51.446;5.404;2024-01-15T09:49:36;3.60;;;1.10;;
13048;SDS011;6591;51.446;5.404;2024-01-15T09:52:05;6.20;;;1.50;;
13048;SDS011;6591;51.446;5.404;2024-01-15T09:54:37;3.07;;;1.23;;
13048;SDS011;6591;51.446;5.404;2024-01-15T09:57:06;2.10;;;1.07;;
13048;SDS011;6591;51.446;5.404;2024-01-15T09:59:34;1.80;;;1.20;;
13048;SDS011;6591;51.446;5.404;2024-01-15T10:02:03;2.03;;;1.57;;
13048;SDS011;6591;51.446;5.404;2024-01-15T10:04:32;3.73;;;1.80;;
13048;SDS011;6591;51.446;5.404;2024-01-15T10:07:00;2.40;;;1.50;;
13048;SDS011;6591;51.446;5.404;2024-01-15T10:09:28;2.93;;;1.63;;
13048;SDS011;6591;51.446;5.404;2024-01-15T10:11:55;1.40;;;1.30;;
13048;SDS011;6591;51.446;5.404;2024-01-15T10:14:22;3.07;;;1.77;;
13048;SDS011;6591;51.446;5.404;2024-01-15T10:16:49;1.70;;;1.60;;
13048;SDS011;6591;51.446;5.404;2024-01-15T10:19:16;2.67;;;2.00;;
13048;SDS011;6591;51.446;5.404;2024-01-15T10:21:44;2.77;;;1.90;;
13048;SDS011;6591;51.446;5.404;2024-01-15T10:24:12;2.47;;;1.73;;
13048;SDS011;6591;51.446;5.404;2024-01-15T10:26:39;3.73;;;2.20;;
13048;SDS011;6591;51.446;5.404;2024-01-15T10:29:06;4.10;;;2.10;;
13048;SDS011;6591;51.446;5.404;2024-01-15T10:31:34;3.37;;;2.33;;
13048;SDS011;6591;51.446;5.404;2024-01-15T10:34:11;3.80;;;2.40;;
13048;SDS011;6591;51.446;5.404;2024-01-15T10:36:39;3.60;;;2.20;;
13048;SDS011;6591;51.446;5.404;2024-01-15T10:39:07;3.87;;;2.67;;
13048;SDS011;6591;51.446;5.404;2024-01-15T10:41:34;4.77;;;2.70;;
13048;SDS011;6591;51.446;5.404;2024-01-15T10:44:02;4.60;;;2.53;;
13048;SDS011;6591;51.446;5.404;2024-01-15T10:46:30;2.93;;;2.47;;
13048;SDS011;6591;51.446;5.404;2024-01-15T10:49:00;3.57;;;2.50;;
13048;SDS011;6591;51.446;5.404;2024-01-15T10:51:28;4.13;;;2.77;;
13048;SDS011;6591;51.446;5.404;2024-01-15T10:53:56;3.07;;;2.30;;
13048;SDS011;6591;51.446;5.404;2024-01-15T10:56:27;3.87;;;2.13;;
13048;SDS011;6591;51.446;5.404;2024-01-15T10:58:56;4.27;;;2.50;;
13048;SDS011;6591;51.446;5.404;2024-01-15T11:01:26;3.37;;;2.30;;
13048;SDS011;6591;51.446;5.404;2024-01-15T11:03:56;4.17;;;2.50;;
13048;SDS011;6591;51.446;5.404;2024-01-15T11:06:24;3.67;;;2.10;;
13048;SDS011;6591;51.446;5.404;2024-01-15T11:08:55;5.93;;;2.67;;
13048;SDS011;6591;51.446;5.404;2024-01-15T11:11:23;5.60;;;2.47;;
13048;SDS011;6591;51.446;5.404;2024-01-15T11:13:50;5.13;;;2.07;;
13048;SDS011;6591;51.446;5.404;2024-01-15T11:16:19;7.27;;;2.30;;
13048;SDS011;6591;51.446;5.404;2024-01-15T11:21:25;2.23;;;1.77;;
13048;SDS011;6591;51.446;5.404;2024-01-15T11:24:00;2.83;;;1.70;;
13048;SDS011;6591;51.446;5.404;2024-01-15T11:34:07;3.80;;;2.00;;
13048;SDS011;6591;51.446;5.404;2024-01-15T11:42:02;3.10;;;1.70;;
13048;SDS011;6591;51.446;5.404;2024-01-15T11:44:30;3.73;;;1.50;;
13048;SDS011;6591;51.446;5.404;2024-01-15T11:46:59;7.30;;;1.40;;
13048;SDS011;6591;51.446;5.404;2024-01-15T11:52:35;2.43;;;1.20;;
13048;SDS011;6591;51.446;5.404;2024-01-15T11:57:47;3.53;;;1.40;;
13048;SDS011;6591;51.446;5.404;2024-01-15T12:00:18;1.80;;;1.40;;
13048;SDS011;6591;51.446;5.404;2024-01-15T12:02:50;3.43;;;1.40;;
13048;SDS011;6591;51.446;5.404;2024-01-15T12:05:18;2.67;;;1.50;;
13048;SDS011;6591;51.446;5.404;2024-01-15T12:07:48;3.63;;;1.40;;
13048;SDS011;6591;51.446;5.404;2024-01-15T12:10:17;1.97;;;1.37;;
13048;SDS011;6591;51.446;5.404;2024-01-15T12:15:32;4.13;;;1.50;;
13048;SDS011;6591;51.446;5.404;2024-01-15T12:18:01;2.17;;;1.40;;
13048;SDS011;6591;51.446;5.404;2024-01-15T12:20:30;1.93;;;1.40;;
13048;SDS011;6591;51.446;5.404;2024-01-15T12:22:58;2.97;;;1.50;;
13048;SDS011;6591;51.446;5.404;2024-01-15T12:25:30;1.33;;;1.23;;
13048;SDS011;6591;51.446;5.404;2024-01-15T12:27:58;1.20;;;1.10;;
13048;SDS011;6591;51.446;5.404;2024-01-15T12:30:27;3.83;;;1.33;;
13048;SDS011;6591;51.446;5.404;2024-01-15T12:32:55;1.20;;;1.10;;
13048;SDS011;6591;51.446;5.404;2024-01-15T12:35:23;3.53;;;1.23;;
13048;SDS011;6591;51.446;5.404;2024-01-15T12:37:56;3.50;;;1.30;;
13048;SDS011;6591;51.446;5.404;2024-01-15T12:40:23;1.53;;;1.10;;
13048;SDS011;6591;51.446;5.404;2024-01-15T12:42:50;3.37;;;1.43;;
13048;SDS011;6591;51.446;5.404;2024-01-15T12:45:18;1.03;;;0.93;;
13048;SDS011;6591;51.446;5.404;2024-01-15T12:47:48;2.67;;;1.20;;
13048;SDS011;6591;51.446;5.404;2024-01-15T12:50:17;1.90;;;1.10;;
13048;SDS011;6591;51.446;5.404;2024-01-15T12:52:46;2.10;;;1.20;;
13048;SDS011;6591;51.446;5.404;2024-01-15T12:55:14;2.87;;;1.40;;
13048;SDS011;6591;51.446;5.404;2024-01-15T12:57:42;3.93;;;1.40;;
13048;SDS011;6591;51.446;5.404;2024-01-15T13:00:09;2.73;;;1.20;;
13048;SDS011;6591;51.446;5.404;2024-01-15T13:02:44;2.53;;;1.23;;
13048;SDS011;6591;51.446;5.404;2024-01-15T13:05:12;1.10;;;0.90;;
13048;SDS011;6591;51.446;5.404;2024-01-15T13:07:41;2.43;;;1.13;;
13048;SDS011;6591;51.446;5.404;2024-01-15T13:10:10;3.00;;;1.30;;
13048;SDS011;6591;51.446;5.404;2024-01-15T13:12:38;1.93;;;1.03;;
13048;SDS011;6591;51.446;5.404;2024-01-15T13:15:07;1.20;;;1.10;;
13048;SDS011;6591;51.446;5.404;2024-01-15T13:17:41;3.27;;;1.40;;
13048;SDS011;6591;51.446;5.404;2024-01-15T13:20:10;3.13;;;1.30;;
13048;SDS011;6591;51.446;5.404;2024-01-15T13:22:39;4.67;;;1.13;;
13048;SDS011;6591;51.446;5.404;2024-01-15T13:25:07;3.23;;;1.40;;
13048;SDS011;6591;51.446;5.404;2024-01-15T13:27:35;4.03;;;1.20;;
13048;SDS011;6591;51.446;5.404;2024-01-15T13:30:04;4.97;;;1.73;;
13048;SDS011;6591;51.446;5.404;2024-01-15T13:32:34;3.53;;;1.70;;
13048;SDS011;6591;51.446;5.404;2024-01-15T13:35:02;2.80;;;1.73;;
13048;SDS011;6591;51.446;5.404;2024-01-15T13:37:32;2.90;;;1.70;;
13048;SDS011;6591;51.446;5.404;2024-01-15T13:39:59;5.50;;;1.67;;
13048;SDS011;6591;51.446;5.404;2024-01-15T13:42:27;2.43;;;1.60;;
13048;SDS011;6591;51.446;5.404;2024-01-15T13:44:54;2.00;;;1.67;;
13048;SDS011;6591;51.446;5.404;2024-01-15T13:47:22;2.90;;;2.00;;
13048;SDS011;6591;51.446;5.404;2024-01-15T13:49:49;3.90;;;1.77;;
13048;SDS011;6591;51.446;5.404;2024-01-15T13:52:16;1.80;;;1.70;;
13048;SDS011;6591;51.446;5.404;2024-01-15T13:54:45;2.50;;;1.80;;
13048;SDS011;6591;51.446;5.404;2024-01-15T13:57:16;2.60;;;1.50;;
13048;SDS011;6591;51.446;5.404;2024-01-15T13:59:47;3.03;;;1.77;;
13048;SDS011;6591;51.446;5.404;2024-01-15T14:02:15;2.43;;;1.93;;
13048;SDS011;6591;51.446;5.404;2024-01-15T14:04:47;4.40;;;1.87;;
13048;SDS011;6591;51.446;5.404;2024-01-15T14:07:15;3.43;;;1.70;;
13048;SDS011;6591;51.446;5.404;2024-01-15T14:09:46;3.43;;;1.90;;
13048;SDS011;6591;51.446;5.404;2024-01-15T14:12:13;2.97;;;1.60;;
13048;SDS011;6591;51.446;5.404;2024-01-15T14:14:40;1.93;;;1.40;;
13048;SDS011;6591;51.446;5.404;2024-01-15T14:17:08;4.67;;;1.60;;
13048;SDS011;6591;51.446;5.404;2024-01-15T14:19:35;1.80;;;1.70;;
13048;SDS011;6591;51.446;5.404;2024-01-15T14:22:03;1.90;;;1.27;;
13048;SDS011;6591;51.446;5.404;2024-01-15T14:24:30;2.93;;;1.50;;
13048;SDS011;6591;51.446;5.404;2024-01-15T14:27:01;2.33;;;1.57;;
13048;SDS011;6591;51.446;5.404;2024-01-15T14:29:31;4.50;;;1.50;;
13048;SDS011;6591;51.446;5.404;2024-01-15T14:31:59;2.93;;;1.27;;
13048;SDS011;6591;51.446;5.404;2024-01-15T14:34:28;3.53;;;1.40;;
13048;SDS011;6591;51.446;5.404;2024-01-15T14:36:56;3.03;;;1.80;;
13048;SDS011;6591;51.446;5.404;2024-01-15T14:39:24;2.17;;;1.37;;
13048;SDS011;6591;51.446;5.404;2024-01-15T14:41:52;3.67;;;1.80;;
13048;SDS011;6591;51.446;5.404;2024-01-15T14:44:19;4.73;;;1.80;;
13048;SDS011;6591;51.446;5.404;2024-01-15T14:46:47;4.53;;;1.70;;
13048;SDS011;6591;51.446;5.404;2024-01-15T14:49:14;3.37;;;1.50;;
13048;SDS011;6591;51.446;5.404;2024-01-15T14:51:47;3.03;;;1.37;;
13048;SDS011;6591;51.446;5.404;2024-01-15T14:54:16;4.00;;;1.57;;
13048;SDS011;6591;51.446;5.404;2024-01-15T14:56:43;7.70;;;1.80;;
13048;SDS011;6591;51.446;5.404;2024-01-15T14:59:10;7.60;;;2.23;;
13048;SDS011;6591;51.446;5.404;2024-01-15T15:01:37;3.90;;;2.20;;
13048;SDS011;6591;51.446;5.404;2024-01-15T15:04:06;5.50;;;2.17;;
13048;SDS011;6591;51.446;5.404;2024-01-15T15:06:35;5.53;;;2.20;;
13048;SDS011;6591;51.446;5.404;2024-01-15T15:09:03;7.77;;;2.97;;
13048;SDS011;6591;51.446;5.404;2024-01-15T15:11:35;4.13;;;1.97;;
13048;SDS011;6591;51.446;5.404;2024-01-15T15:14:03;6.10;;;1.90;;
13048;SDS011;6591;51.446;5.404;2024-01-15T15:16:33;6.47;;;1.80;;
13048;SDS011;6591;51.446;5.404;2024-01-15T15:19:00;4.27;;;1.87;;
13048;SDS011;6591;51.446;5.404;2024-01-15T15:21:27;5.63;;;1.80;;
13048;SDS011;6591;51.446;5.404;2024-01-15T15:23:56;5.80;;;3.00;;
13048;SDS011;6591;51.446;5.404;2024-01-15T15:26:23;6.70;;;2.00;;
13048;SDS011;6591;51.446;5.404;2024-01-15T15:28:50;2.93;;;1.73;;